Time;durP1;ratioP1;P1;durP2;ratioP2;P2;SDS_P1;SDS_P2;PMS_P1;PMS_P2;Temp;Humidity;BMP_temperature;BMP_pressure;BME280_temperature;BME280_humidity;BME280_pressure;Samples;Min_cycle;Max_cycle;Signal;HPM_P1;HPM_P2
2022/01/30 00:00:57;;;;;;;36.08;20.75;;;;;;;-0.59;62.51;100946.91;5072627;28;20037;-71
2022/01/30 00:03:23;;;;;;;35.53;20.33;;;;;;;-0.84;62.90;100939.56;5063307;28;20029;-70
2022/01/30 00:05:48;;;;;;;40.30;22.85;;;;;;;-1.10;63.24;100938.13;5051458;28;20036;-74
2022/01/30 00:08:14;;;;;;;29.30;20.45;;;;;;;-0.96;62.93;100924.34;5060769;28;20115;-71
2022/01/30 00:10:40;;;;;;;34.92;21.50;;;;;;;-0.67;62.18;100918.16;5067817;28;20029;-71
2022/01/30 00:13:10;;;;;;;27.67;20.42;;;;;;;-0.78;62.47;100939.88;5069015;28;20131;-71
2022/01/30 00:21:35;;;;;;;28.52;20.40;;;;;;;-1.02;63.45;100916.25;5062372;28;20033;-70
2022/01/30 00:24:08;;;;;;;33.58;20.92;;;;;;;-0.86;63.23;100905.09;5075235;28;20039;-71
2022/01/30 00:26:36;;;;;;;23.48;17.55;;;;;;;-0.74;63.35;100913.47;5067660;28;20387;-70
2022/01/30 00:29:03;;;;;;;29.65;18.75;;;;;;;-0.99;63.02;100910.38;5068532;28;20389;-70
2022/01/30 00:31:54;;;;;;;31.60;21.05;;;;;;;-1.12;63.25;100924.28;5071505;28;20051;-70
2022/01/30 00:34:19;;;;;;;29.83;18.73;;;;;;;-1.25;63.49;100888.38;5061448;28;20068;-71
2022/01/30 00:36:45;;;;;;;29.55;18.95;;;;;;;-1.45;63.91;100902.69;5068844;28;20078;-71
2022/01/30 00:39:10;;;;;;;22.23;15.85;;;;;;;-1.36;63.99;100903.22;5070320;28;20041;-71
2022/01/30 00:41:36;;;;;;;28.65;17.13;;;;;;;-1.66;63.53;100876.63;5067122;28;20021;-71
2022/01/30 00:44:01;;;;;;;26.00;16.08;;;;;;;-1.77;63.65;100873.47;5061579;28;20059;-71
2022/01/30 00:46:26;;;;;;;20.92;13.40;;;;;;;-1.78;63.90;100887.13;5068728;28;20033;-71
2022/01/30 00:49:11;;;;;;;20.58;14.07;;;;;;;-1.86;64.00;100873.84;5071005;28;20036;-70
2022/01/30 00:51:37;;;;;;;23.00;12.85;;;;;;;-2.06;64.74;100859.84;5052837;28;20082;-72
2022/01/30 00:54:03;;;;;;;19.05;9.80;;;;;;;-2.20;65.69;100871.91;5067316;28;20052;-70
2022/01/30 00:56:29;;;;;;;21.98;11.30;;;;;;;-2.15;66.22;100855.06;5068830;28;20045;-71
2022/01/30 01:02:17;;;;;;;20.80;9.95;;;;;;;-2.14;66.32;100861.06;5079257;28;20132;-71
2022/01/30 01:04:45;;;;;;;24.98;12.70;;;;;;;-1.93;66.31;100869.13;5071440;28;20044;-71
2022/01/30 01:07:19;;;;;;;20.30;11.23;;;;;;;-1.80;65.83;100868.16;5072671;28;20040;-71
2022/01/30 01:09:55;;;;;;;15.45;10.13;;;;;;;-1.94;66.37;100864.81;5072174;28;20040;-71
2022/01/30 01:24:05;;;;;;;18.58;10.38;;;;;;;-1.85;66.44;100836.13;5084807;28;20384;-71
2022/01/30 01:26:31;;;;;;;17.88;11.85;;;;;;;-2.08;66.88;100832.25;5075001;28;20021;-71
2022/01/30 01:28:57;;;;;;;17.70;9.90;;;;;;;-2.09;67.11;100836.50;5075167;28;20123;-70
2022/01/30 01:31:23;;;;;;;21.00;11.02;;;;;;;-1.88;66.16;100824.00;5071654;28;20461;-70
2022/01/30 01:38:17;;;;;;;16.00;8.63;;;;;;;-1.75;64.90;100805.00;5106229;27;20635;-71
2022/01/30 01:40:51;;;;;;;15.38;9.82;;;;;;;-1.54;64.51;100813.91;5056233;28;20461;-71
2022/01/30 01:43:18;;;;;;;19.70;9.30;;;;;;;-1.59;64.18;100799.00;5077842;28;20373;-70
2022/01/30 01:45:43;;;;;;;16.45;8.95;;;;;;;-1.54;63.48;100797.59;5044853;28;20052;-71
2022/01/30 01:48:13;;;;;;;19.48;9.80;;;;;;;-1.57;63.72;100795.75;5046781;28;20045;-71
2022/01/30 01:51:29;;;;;;;14.25;9.18;;;;;;;-1.64;63.95;100790.16;5037757;28;20033;-70
2022/01/30 01:53:56;;;;;;;15.55;9.32;;;;;;;-1.82;64.28;100779.75;5044978;28;20051;-70
2022/01/30 01:56:23;;;;;;;15.80;9.07;;;;;;;-1.86;64.39;100745.25;5046492;28;20040;-70
2022/01/30 01:58:49;;;;;;;15.43;10.38;;;;;;;-1.69;64.47;100748.72;5044441;28;20132;-72
2022/01/30 02:01:15;;;;;;;20.10;9.55;;;;;;;-1.77;63.69;100729.44;5045795;28;20107;-71
2022/01/30 02:03:43;;;;;;;14.70;8.90;;;;;;;-1.95;64.25;100719.03;5044107;28;20033;-70
2022/01/30 02:06:13;;;;;;;13.95;8.30;;;;;;;-1.85;64.24;100730.69;5048908;28;20036;-70
2022/01/30 02:08:47;;;;;;;16.27;10.80;;;;;;;-1.76;63.63;100718.34;5057852;28;20032;-69
2022/01/30 02:11:17;;;;;;;;;;;;;;;-1.76;64.73;100742.38;5064578;28;20404;-69
2022/01/30 02:28:39;;;;;;;15.55;9.38;;;;;;;-1.59;64.49;100715.00;5048786;28;20067;-70
2022/01/30 02:31:12;;;;;;;14.10;9.23;;;;;;;-1.84;64.55;100691.34;5045563;28;20064;-70
2022/01/30 02:33:39;;;;;;;16.45;10.82;;;;;;;-1.52;64.65;100700.78;5045338;28;20049;-70
2022/01/30 02:36:05;;;;;;;15.70;10.80;;;;;;;-1.89;65.03;100674.78;5040666;28;20037;-72
2022/01/30 02:38:59;;;;;;;15.70;10.88;;;;;;;-1.80;65.42;100695.84;5029670;28;20054;-71
2022/01/30 02:41:26;;;;;;;16.27;10.23;;;;;;;-1.88;65.18;100666.25;5064488;28;20536;-71
2022/01/30 02:44:07;;;;;;;19.10;11.60;;;;;;;-1.87;64.84;100653.47;5059552;28;20052;-72
2022/01/30 02:46:35;;;;;;;15.85;8.93;;;;;;;-1.73;65.00;100673.09;5047561;28;20048;-71
2022/01/30 02:52:36;;;;;;;13.15;9.80;;;;;;;-1.52;64.10;100685.34;5031770;28;20052;-71
2022/01/30 02:55:04;;;;;;;13.52;9.85;;;;;;;-1.72;64.01;100677.44;5028730;28;20045;-71
2022/01/30 02:57:29;;;;;;;15.30;10.73;;;;;;;-2.23;65.43;100654.94;5031701;28;20064;-70
2022/01/30 02:59:55;;;;;;;16.38;12.15;;;;;;;-1.68;64.79;100662.19;5027089;28;20159;-70
2022/01/30 03:02:20;;;;;;;20.20;11.23;;;;;;;-1.62;64.25;100650.50;5031839;28;20445;-70
2022/01/30 03:04:46;;;;;;;19.48;13.00;;;;;;;-1.59;64.22;100658.41;5048025;28;20041;-71
2022/01/30 03:07:11;;;;;;;20.23;10.55;;;;;;;-1.69;64.22;100638.13;5055033;28;20041;-71
2022/01/30 03:09:37;;;;;;;20.95;11.30;;;;;;;-1.79;64.60;100630.75;5052401;28;20484;-71
2022/01/30 03:12:03;;;;;;;17.23;10.35;;;;;;;-1.90;64.92;100622.44;5050799;28;20079;-70
2022/01/30 03:14:29;;;;;;;19.23;10.90;;;;;;;-1.93;64.76;100623.16;5056032;28;20029;-70
2022/01/30 03:16:58;;;;;;;21.48;10.88;;;;;;;-1.88;65.00;100640.53;5044257;28;20476;-72
2022/01/30 03:19:56;;;;;;;16.10;10.43;;;;;;;-2.01;65.50;100637.31;5043048;28;20182;-69
2022/01/30 03:22:43;;;;;;;18.52;10.40;;;;;;;-1.99;65.46;100633.13;5037319;28;20112;-72
2022/01/30 03:25:30;;;;;;;13.57;9.45;;;;;;;-2.05;65.96;100630.22;5028189;28;20048;-71
2022/01/30 03:27:56;;;;;;;14.13;9.82;;;;;;;-2.22;66.18;100601.06;5037528;28;20048;-72
2022/01/30 03:30:28;;;;;;;17.02;10.68;;;;;;;-2.04;65.96;100618.25;5046771;28;20049;-72
2022/01/30 03:32:54;;;;;;;13.00;8.30;;;;;;;-2.06;66.04;100604.44;5049354;28;20083;-71
2022/01/30 03:35:19;;;;;;;15.80;9.73;;;;;;;-2.01;65.98;100605.59;5052781;28;20040;-71
2022/01/30 03:37:45;;;;;;;16.33;10.88;;;;;;;-2.15;67.03;100603.16;5051194;28;20439;-71
2022/01/30 03:40:11;;;;;;;14.52;8.75;;;;;;;-2.15;66.94;100564.59;5048567;28;20120;-70
2022/01/30 03:42:37;;;;;;;18.42;9.55;;;;;;;-1.95;67.06;100565.63;5049789;28;21306;-72
2022/01/30 03:55:07;;;;;;;14.88;9.32;;;;;;;-1.66;68.19;100525.13;5049592;28;20191;-70
2022/01/30 03:57:32;;;;;;;14.73;9.65;;;;;;;-1.60;68.16;100509.09;5050250;28;20516;-70
2022/01/30 03:59:57;;;;;;;26.83;10.05;;;;;;;-1.49;68.56;100521.69;5059185;28;20021;-71
2022/01/30 04:02:23;;;;;;;14.20;9.75;;;;;;;-1.77;69.93;100522.00;5068912;28;20417;-71
2022/01/30 04:05:30;;;;;;;11.90;8.73;;;;;;;-1.43;69.75;100515.94;5052490;28;20102;-70
2022/01/30 04:08:38;;;;;;;13.20;9.57;;;;;;;-1.39;70.14;100505.00;5053870;28;20041;-70
2022/01/30 04:14:20;;;;;;;14.32;9.10;;;;;;;-1.24;70.06;100501.41;5048934;28;20052;-70
2022/01/30 04:16:45;;;;;;;14.90;10.35;;;;;;;-1.10;69.86;100502.97;5034670;28;20041;-70
2022/01/30 04:19:11;;;;;;;19.08;11.63;;;;;;;-1.27;70.45;100479.00;5030048;28;20492;-71
2022/01/30 04:21:37;;;;;;;19.15;13.05;;;;;;;-1.52;71.04;100500.09;5029116;28;20500;-71
2022/01/30 04:24:03;;;;;;;20.10;12.05;;;;;;;-1.28;70.54;100492.69;5029258;28;20088;-72
2022/01/30 04:26:29;;;;;;;14.45;9.60;;;;;;;-1.29;70.38;100478.03;5030969;28;20473;-72
2022/01/30 04:29:13;;;;;;;16.05;11.10;;;;;;;-1.40;71.35;100489.53;5028587;28;20041;-72
2022/01/30 04:31:39;;;;;;;19.67;11.95;;;;;;;-1.52;71.59;100472.66;5020701;28;20048;-72
2022/01/30 04:34:04;;;;;;;14.60;9.93;;;;;;;-1.34;71.82;100467.50;5031388;28;20026;-71
2022/01/30 04:36:36;;;;;;;17.45;10.35;;;;;;;-1.28;71.73;100464.38;5033476;28;20048;-70
2022/01/30 04:39:33;;;;;;;12.63;10.32;;;;;;;-1.36;71.49;100438.28;5047276;28;20024;-72
2022/01/30 05:09:34;;;;;;;13.82;8.43;;;;;;;-1.52;72.40;100404.88;5028844;28;20592;-70
2022/01/30 05:11:59;;;;;;;15.50;8.98;;;;;;;-1.39;72.82;100386.63;5029699;28;20120;-70
2022/01/30 05:14:31;;;;;;;13.27;9.48;;;;;;;-1.44;72.55;100375.25;5030065;28;20033;-70
2022/01/30 05:16:57;;;;;;;13.43;7.75;;;;;;;-1.19;71.95;100374.72;5031446;28;20041;-70
2022/01/30 05:19:23;;;;;;;15.02;10.23;;;;;;;-1.01;71.35;100390.09;5036425;28;20044;-70
2022/01/30 05:21:48;;;;;;;13.40;8.38;;;;;;;-0.91;71.20;100388.88;5039971;28;20049;-71
2022/01/30 05:24:14;;;;;;;13.45;9.32;;;;;;;-0.98;71.37;100371.38;5025224;28;20036;-70
2022/01/30 05:26:45;;;;;;;13.40;8.68;;;;;;;-1.03;71.46;100384.03;5052192;28;20448;-71
2022/01/30 05:29:11;;;;;;;25.40;11.73;;;;;;;-1.34;72.69;100385.16;5028261;28;20088;-70
2022/01/30 05:31:37;;;;;;;20.88;9.15;;;;;;;-1.02;71.94;100356.59;5029087;28;20465;-71
2022/01/30 05:34:03;;;;;;;18.70;9.73;;;;;;;-1.07;71.18;100340.94;5031838;28;20059;-70
2022/01/30 05:36:30;;;;;;;11.82;8.32;;;;;;;-0.94;71.42;100366.41;5027890;28;20049;-70
2022/01/30 05:38:57;;;;;;;14.55;8.98;;;;;;;-0.88;70.48;100347.78;5015913;28;20083;-72
2022/01/30 05:41:23;;;;;;;17.00;9.20;;;;;;;-1.10;71.64;100364.84;5030123;28;20087;-71
2022/01/30 05:43:53;;;;;;;16.40;9.23;;;;;;;-1.14;71.62;100351.75;5028519;28;20045;-71
2022/01/30 05:46:47;;;;;;;13.73;8.02;;;;;;;-0.89;71.10;100370.09;5027823;28;20053;-71
2022/01/30 05:49:14;;;;;;;13.75;7.82;;;;;;;-1.08;71.41;100368.38;5023917;28;20111;-71
2022/01/30 05:55:01;;;;;;;14.45;8.95;;;;;;;-0.81;71.02;100356.66;5018296;28;20153;-71
2022/01/30 05:57:27;;;;;;;12.38;8.38;;;;;;;-0.80;71.17;100345.53;5025224;28;20038;-71
2022/01/30 05:59:53;;;;;;;12.88;8.13;;;;;;;-0.92;71.60;100325.28;5020548;28;20036;-71
2022/01/30 06:06:08;;;;;;;10.73;7.15;;;;;;;-0.56;71.10;100307.06;5028312;28;20553;-70
2022/01/30 06:11:10;;;;;;;16.27;9.32;;;;;;;-0.83;71.72;100323.09;5036350;28;20037;-71
2022/01/30 06:17:23;;;;;;;16.15;8.63;;;;;;;-0.69;71.05;100318.56;5045100;28;20531;-71
2022/01/30 06:19:48;;;;;;;11.90;9.90;;;;;;;-0.73;71.02;100320.09;5047348;28;20033;-70
2022/01/30 06:22:14;;;;;;;13.57;7.97;;;;;;;-0.93;71.81;100321.81;5048415;28;20449;-70
2022/01/30 06:24:39;;;;;;;10.55;7.68;;;;;;;-0.88;71.58;100328.06;5051055;28;20452;-70
2022/01/30 06:27:05;;;;;;;12.68;8.40;;;;;;;-0.79;71.25;100306.97;5054659;28;20348;-71
2022/01/30 06:33:32;;;;;;;17.23;7.05;;;;;;;-0.55;70.51;100332.03;5050762;28;20035;-70
2022/01/30 06:36:06;;;;;;;12.07;9.02;;;;;;;-1.00;71.42;100300.88;5047182;28;20060;-71
2022/01/30 06:38:32;;;;;;;13.23;8.30;;;;;;;-0.70;70.83;100309.09;5041222;28;20033;-71
2022/01/30 06:40:57;;;;;;;15.27;8.30;;;;;;;-0.71;70.98;100304.72;5034683;28;20492;-70
2022/01/30 06:43:31;;;;;;;10.13;7.25;;;;;;;-0.56;71.01;100301.91;5046287;28;20376;-71
2022/01/30 06:46:20;;;;;;;13.52;8.73;;;;;;;-0.45;70.09;100305.84;5052181;28;20089;-71
2022/01/30 06:48:46;;;;;;;13.10;8.23;;;;;;;-0.37;69.95;100293.28;5043952;28;20068;-70
2022/01/30 06:51:11;;;;;;;22.98;8.80;;;;;;;-0.47;70.08;100287.75;5052994;28;20076;-70
2022/01/30 06:53:37;;;;;;;12.80;7.35;;;;;;;-0.26;69.53;100310.06;5052231;28;20032;-70
2022/01/30 06:56:41;;;;;;;15.77;8.60;;;;;;;-0.33;69.82;100315.78;5050326;28;20036;-72
2022/01/30 06:59:06;;;;;;;;;;;;;;;-0.03;69.20;100304.16;5041533;28;20060;-70
2022/01/30 07:01:32;;;;;;;11.70;7.32;;;;;;;-0.20;69.75;100312.03;5050648;28;19924;-71
2022/01/30 07:03:57;;;;;;;12.27;7.72;;;;;;;-0.08;69.19;100299.66;5052384;28;20037;-71
2022/01/30 07:06:23;;;;;;;14.15;7.80;;;;;;;-0.18;68.67;100293.22;5047619;28;20072;-71
2022/01/30 07:08:49;;;;;;;14.68;8.77;;;;;;;-0.18;69.00;100282.91;5035902;28;20400;-72
2022/01/30 07:11:15;;;;;;;13.40;8.40;;;;;;;0.03;68.43;100295.81;5052417;28;20395;-72
2022/01/30 07:13:46;;;;;;;13.35;7.65;;;;;;;0.07;68.31;100302.84;5055250;28;20518;-71
2022/01/30 07:16:59;;;;;;;14.60;8.60;;;;;;;0.19;68.37;100303.34;5042423;28;20044;-71
2022/01/30 07:19:25;;;;;;;12.52;8.30;;;;;;;0.27;67.76;100289.84;5038336;28;20136;-70
2022/01/30 07:21:51;;;;;;;16.25;9.43;;;;;;;0.27;67.94;100275.25;5044579;28;20536;-71
2022/01/30 07:24:16;;;;;;;11.43;7.85;;;;;;;0.34;67.49;100276.38;5053022;28;20052;-70
2022/01/30 07:29:54;;;;;;;14.63;8.45;;;;;;;0.06;67.99;100261.50;5039815;28;20132;-71
2022/01/30 07:32:19;;;;;;;13.60;7.65;;;;;;;0.28;67.64;100282.19;5061447;28;20537;-70
2022/01/30 07:34:45;;;;;;;16.45;8.73;;;;;;;0.34;67.59;100263.47;5054774;28;20037;-70
2022/01/30 07:37:12;;;;;;;15.45;8.38;;;;;;;0.50;66.79;100262.38;5050023;28;20487;-71
2022/01/30 07:39:38;;;;;;;15.27;7.40;;;;;;;0.35;67.47;100252.31;5054580;28;20049;-71
2022/01/30 07:42:04;;;;;;;15.43;7.70;;;;;;;0.18;67.56;100268.03;5059361;28;20032;-70
2022/01/30 07:44:30;;;;;;;13.10;7.53;;;;;;;0.57;66.69;100269.50;5054378;28;20060;-70
2022/01/30 07:46:56;;;;;;;10.88;8.80;;;;;;;0.19;67.44;100246.59;5074702;28;20515;-70
2022/01/30 07:49:22;;;;;;;20.45;7.45;;;;;;;0.45;66.38;100251.88;5058543;28;20496;-71
2022/01/30 07:51:47;;;;;;;14.85;8.32;;;;;;;0.86;66.31;100257.66;5056173;28;20123;-72
2022/01/30 07:54:13;;;;;;;11.80;7.85;;;;;;;0.74;66.15;100263.25;5059006;28;20336;-71
2022/01/30 07:56:38;;;;;;;15.70;8.75;;;;;;;0.41;66.25;100239.66;5051501;28;20522;-72
2022/01/30 07:59:04;;;;;;;11.25;7.47;;;;;;;0.81;65.46;100252.34;5043212;28;20029;-71
2022/01/30 08:01:29;;;;;;;15.43;8.02;;;;;;;0.31;66.51;100234.97;5050616;28;20041;-70
2022/01/30 08:03:54;;;;;;;16.33;10.25;;;;;;;0.56;66.01;100239.34;5053576;28;20480;-70
2022/01/30 08:06:20;;;;;;;11.80;7.22;;;;;;;0.88;65.62;100244.81;5054946;28;20376;-71
2022/01/30 08:08:46;;;;;;;16.55;9.55;;;;;;;0.96;65.31;100240.78;5050129;28;20483;-71
2022/01/30 08:11:28;;;;;;;13.93;9.00;;;;;;;1.14;65.09;100233.69;5051080;28;20463;-71
2022/01/30 08:13:54;;;;;;;12.85;9.00;;;;;;;1.08;64.87;100236.09;5040336;28;20389;-70
2022/01/30 08:16:20;;;;;;;14.60;8.70;;;;;;;1.23;64.75;100244.34;5053331;28;20037;-71
2022/01/30 08:18:46;;;;;;;19.25;9.55;;;;;;;1.22;64.44;100234.84;5067159;28;20127;-71
2022/01/30 08:21:12;;;;;;;15.45;9.30;;;;;;;1.25;63.78;100236.66;5049525;28;20128;-71
2022/01/30 08:23:37;;;;;;;16.17;9.52;;;;;;;1.15;63.85;100219.09;5049870;28;20028;-71
2022/01/30 08:26:03;;;;;;;15.02;9.48;;;;;;;0.99;64.64;100204.75;5056181;28;20380;-71
2022/01/30 08:28:29;;;;;;;12.00;8.98;;;;;;;1.13;64.00;100223.34;5052471;28;20047;-71
2022/01/30 08:30:55;;;;;;;13.60;8.50;;;;;;;1.16;63.86;100208.78;5053732;28;20087;-71
2022/01/30 08:33:20;;;;;;;25.15;9.02;;;;;;;1.13;64.50;100224.19;5050592;28;20037;-71
2022/01/30 08:35:46;;;;;;;12.07;7.03;;;;;;;1.31;63.10;100198.13;5049579;28;20029;-71
2022/01/30 08:38:18;;;;;;;15.27;10.18;;;;;;;1.72;63.22;100221.88;5047925;28;20072;-70
2022/01/30 08:40:49;;;;;;;15.73;8.25;;;;;;;1.87;61.99;100206.84;5048819;28;20128;-70
2022/01/30 08:43:15;;;;;;;12.98;9.75;;;;;;;2.01;61.44;100216.72;5046248;28;20128;-69
2022/01/30 08:45:42;;;;;;;12.43;8.85;;;;;;;1.88;61.90;100207.72;5045304;28;20102;-70
2022/01/30 08:48:08;;;;;;;15.32;10.18;;;;;;;1.84;61.99;100217.06;5056442;28;20052;-70
2022/01/30 08:53:55;;;;;;;13.95;10.07;;;;;;;2.29;61.33;100205.50;5053429;28;20500;-71
2022/01/30 08:56:23;;;;;;;13.68;9.23;;;;;;;2.41;61.07;100202.41;5044866;28;20021;-71
2022/01/30 08:58:49;;;;;;;14.90;9.75;;;;;;;2.43;60.37;100187.78;5045969;28;20037;-72
2022/01/30 09:01:15;;;;;;;14.00;9.48;;;;;;;2.17;60.39;100162.03;5043177;28;20045;-72
2022/01/30 09:03:43;;;;;;;14.18;8.85;;;;;;;2.45;59.87;100174.06;5047564;28;20059;-71
2022/01/30 09:06:09;;;;;;;11.73;9.15;;;;;;;2.26;60.42;100189.91;5041013;28;20132;-71
2022/01/30 09:08:34;;;;;;;16.13;8.80;;;;;;;2.02;61.43;100157.28;5045972;28;20037;-70
2022/01/30 09:11:00;;;;;;;16.23;10.48;;;;;;;2.36;60.96;100129.78;5045516;28;20052;-72
2022/01/30 09:13:25;;;;;;;11.10;8.63;;;;;;;2.37;60.37;100149.66;5048075;28;20041;-71
2022/01/30 09:15:56;;;;;;;13.50;9.45;;;;;;;2.56;60.09;100135.53;5043609;28;20087;-71
2022/01/30 09:18:22;;;;;;;10.63;8.40;;;;;;;2.45;59.82;100139.53;5042859;28;20044;-72
2022/01/30 09:20:48;;;;;;;20.98;9.43;;;;;;;2.63;58.94;100150.41;5045425;28;20033;-71
2022/01/30 09:23:13;;;;;;;12.52;7.63;;;;;;;3.03;57.83;100117.78;5045923;28;20033;-72
2022/01/30 09:25:39;;;;;;;15.45;8.30;;;;;;;3.39;56.80;100132.47;5041925;28;20052;-70
2022/01/30 09:28:05;;;;;;;14.07;8.02;;;;;;;3.51;56.46;100132.81;5041513;28;20061;-73
2022/01/30 09:30:32;;;;;;;13.65;7.53;;;;;;;2.91;56.92;100123.53;5044559;28;20061;-70
2022/01/30 09:32:57;;;;;;;19.05;9.18;;;;;;;3.53;55.11;100130.22;5043994;28;20032;-71
2022/01/30 09:35:23;;;;;;;11.20;8.95;;;;;;;3.39;54.92;100124.69;5047303;28;20041;-71
2022/01/30 09:37:49;;;;;;;18.63;9.55;;;;;;;3.58;55.22;100119.13;5046108;28;20485;-70
2022/01/30 09:40:17;;;;;;;11.27;7.47;;;;;;;3.95;53.99;100096.59;5047954;28;20062;-73
2022/01/30 09:42:44;;;;;;;11.98;7.82;;;;;;;3.91;53.11;100109.47;5049750;28;20055;-71
2022/01/30 09:45:11;;;;;;;11.30;8.05;;;;;;;3.95;53.77;100091.38;5051691;28;20047;-73
2022/01/30 09:47:37;;;;;;;13.30;8.30;;;;;;;4.16;53.50;100087.50;5035115;28;20061;-76
2022/01/30 17:26:17;;;;;;;10.77;4.05;;;;;;;20.42;35.08;99715.00;5067187;28;20640;-67
2022/01/30 17:28:43;;;;;;;10.88;4.20;;;;;;;20.34;35.34;99711.00;5021408;28;20042;-61
2022/01/30 17:36:19;;;;;;;13.07;3.70;;;;;;;20.32;35.36;99711.09;5035685;28;20614;-64
2022/01/30 17:38:45;;;;;;;6.47;2.90;;;;;;;20.28;35.03;99725.50;5010793;28;20493;-63
2022/01/30 17:41:10;;;;;;;8.68;3.25;;;;;;;20.23;34.91;99711.56;4989968;28;20025;-65
2022/01/30 17:43:36;;;;;;;17.17;3.22;;;;;;;20.39;35.59;99744.47;4987093;28;20144;-61
2022/01/30 17:46:01;;;;;;;21.90;3.65;;;;;;;20.37;35.71;99758.78;4987679;28;20049;-61
2022/01/30 17:48:27;;;;;;;7.10;2.17;;;;;;;20.51;36.55;99764.31;4977127;28;20494;-61
2022/01/30 17:51:17;;;;;;;13.40;2.83;;;;;;;20.52;36.12;99770.50;5008688;28;20062;-60
2022/01/30 17:53:42;;;;;;;13.80;3.95;;;;;;;20.56;35.71;99756.09;4985432;28;20034;-63
2022/01/30 17:56:08;;;;;;;23.02;5.35;;;;;;;20.47;36.00;99756.56;4985217;28;20049;-62
2022/01/30 17:58:34;;;;;;;21.83;3.22;;;;;;;20.57;35.81;99757.81;4986008;28;20061;-51
2022/01/30 18:01:00;;;;;;;11.13;4.07;;;;;;;20.61;35.38;99762.06;4989467;28;20038;-51
2022/01/30 18:06:47;;;;;;;13.18;3.22;;;;;;;20.57;35.11;99769.34;4990610;28;20041;-54
2022/01/30 18:09:13;;;;;;;14.73;3.67;;;;;;;20.53;35.14;99766.88;4988906;28;20455;-54
2022/01/30 18:11:38;;;;;;;18.02;2.97;;;;;;;20.64;35.02;99791.22;4990817;28;20477;-54
2022/01/30 18:14:04;;;;;;;17.33;2.83;;;;;;;20.53;34.81;99781.06;4990275;28;20414;-50
2022/01/30 18:19:51;;;;;;;8.60;2.55;;;;;;;20.58;34.10;99802.19;4990766;28;20054;-54
2022/01/30 18:25:40;;;;;;;9.45;3.40;;;;;;;20.59;34.47;99811.91;4990377;28;20041;-53
2022/01/30 18:28:06;;;;;;;25.27;2.97;;;;;;;20.72;34.14;99826.34;4989896;28;20043;-52
2022/01/30 18:30:32;;;;;;;9.02;3.55;;;;;;;20.59;33.88;99807.44;4990646;28;20065;-54
2022/01/30 18:33:53;;;;;;;7.65;3.58;;;;;;;20.69;33.87;99822.97;4990846;28;20033;-51
2022/01/30 18:36:22;;;;;;;7.50;2.90;;;;;;;20.73;33.71;99808.56;4970304;28;20050;-53
2022/01/30 18:38:55;;;;;;;8.82;2.92;;;;;;;20.70;33.93;99822.91;4970289;28;20081;-51
2022/01/30 18:44:42;;;;;;;9.55;1.92;;;;;;;20.68;33.58;99810.59;4970990;28;20117;-54
2022/01/30 18:47:42;;;;;;;7.07;2.50;;;;;;;20.70;33.51;99822.91;4961730;28;20031;-51
2022/01/30 18:53:30;;;;;;;9.52;2.40;;;;;;;20.67;33.37;99823.03;4958384;29;20047;-53
2022/01/30 18:59:16;;;;;;;4.20;2.28;;;;;;;20.60;33.49;99802.97;4958268;29;20372;-51
2022/01/30 19:01:42;;;;;;;5.82;2.53;;;;;;;20.65;33.12;99808.94;4957094;28;20043;-51
2022/01/30 19:04:09;;;;;;;10.88;2.70;;;;;;;20.57;33.21;99798.66;4957212;28;20126;-51
2022/01/30 19:06:36;;;;;;;8.02;3.20;;;;;;;20.72;33.13;99820.13;4957368;28;20039;-52
2022/01/30 19:09:07;;;;;;;7.32;2.47;;;;;;;20.62;32.99;99795.75;4956812;28;20050;-53
2022/01/30 19:11:33;;;;;;;5.88;2.28;;;;;;;20.75;32.96;99817.34;4957787;28;20035;-53
2022/01/30 19:17:20;;;;;;;8.13;3.03;;;;;;;20.68;32.97;99827.44;4957968;29;20094;-53
2022/01/30 19:19:46;;;;;;;6.03;2.65;;;;;;;20.70;32.95;99830.91;4955743;28;20039;-52
2022/01/30 19:22:13;;;;;;;7.90;2.30;;;;;;;20.71;32.42;99831.75;4957071;28;20039;-53
2022/01/30 19:24:39;;;;;;;10.82;3.17;;;;;;;20.52;32.64;99808.66;4956738;28;20065;-51
2022/01/30 19:27:04;;;;;;;6.28;2.50;;;;;;;20.66;32.81;99832.00;4956565;28;20468;-53
2022/01/30 19:29:30;;;;;;;5.97;2.83;;;;;;;20.54;32.50;99811.25;4957232;28;20038;-52
2022/01/30 19:31:56;;;;;;;5.28;1.95;;;;;;;20.51;32.89;99817.63;4956707;28;20035;-53
2022/01/30 19:37:43;;;;;;;5.90;2.00;;;;;;;20.62;32.73;99846.41;4976021;28;20066;-54
2022/01/30 19:40:09;;;;;;;8.80;2.45;;;;;;;20.51;32.58;99828.28;4976014;28;20424;-54
2022/01/30 19:42:37;;;;;;;7.57;2.92;;;;;;;20.51;32.78;99827.38;4976282;28;20410;-53
2022/01/30 19:45:07;;;;;;;5.43;2.20;;;;;;;20.63;32.50;99853.50;4975622;28;20037;-52
2022/01/30 19:50:54;;;;;;;4.25;2.10;;;;;;;20.61;32.71;99850.88;4976427;28;20486;-51
2022/01/30 19:53:42;;;;;;;5.13;2.40;;;;;;;20.62;32.62;99849.06;4976309;28;20027;-50
2022/01/30 19:59:29;;;;;;;6.25;2.95;;;;;;;20.67;32.46;99863.03;4975686;28;20123;-50
2022/01/30 20:01:55;;;;;;;4.20;2.38;;;;;;;20.58;32.29;99842.16;4975063;28;20039;-52
2022/01/30 20:04:20;;;;;;;6.10;2.45;;;;;;;20.63;32.53;99850.81;4975491;28;20038;-53
2022/01/30 20:13:29;;;;;;;13.93;3.15;;;;;;;20.56;32.46;99828.94;4975885;28;20054;-49
2022/01/30 20:15:55;;;;;;;8.38;3.45;;;;;;;20.65;32.54;99833.81;4973501;28;20046;-51
2022/01/30 20:18:21;;;;;;;25.73;2.53;;;;;;;20.75;32.08;99855.53;4989763;28;20062;-50
2022/01/30 20:20:47;;;;;;;7.82;2.20;;;;;;;20.70;32.61;99848.69;4978403;28;20033;-52
2022/01/30 20:23:14;;;;;;;7.60;2.65;;;;;;;20.68;33.01;99847.91;4974126;28;20043;-56
2022/01/30 20:25:46;;;;;;;24.05;2.67;;;;;;;20.72;32.97;99865.47;4970809;28;20047;-58
2022/01/30 20:28:13;;;;;;;7.15;2.45;;;;;;;20.74;32.70;99868.91;4975002;28;20081;-52
